createdAt,value
2018-10-06T00:01:16.974Z,14.83
2018-10-06T00:03:44.324Z,15.23
2018-10-06T00:06:11.853Z,14.47
2018-10-06T00:08:39.024Z,15.65
2018-10-06T00:11:06.260Z,14.90
2018-10-06T00:13:33.419Z,16.37
2018-10-06T00:16:00.630Z,15.30
2018-10-06T00:18:27.791Z,15.83
2018-10-06T00:20:54.989Z,16.05
2018-10-06T00:23:22.174Z,13.32
2018-10-06T00:25:49.376Z,15.53
2018-10-06T00:28:16.501Z,18.70
2018-10-06T00:30:43.706Z,15.38
2018-10-06T00:33:10.882Z,15.43
2018-10-06T00:35:38.080Z,15.93
2018-10-06T00:38:05.278Z,16.70
2018-10-06T00:40:32.556Z,12.90
2018-10-06T00:43:00.136Z,16.32
2018-10-06T00:45:27.441Z,15.05
2018-10-06T00:47:54.667Z,16.12
2018-10-06T00:50:21.829Z,24.50
2018-10-06T00:52:49.109Z,16.40
2018-10-06T00:55:16.455Z,13.08
2018-10-06T00:57:43.902Z,14.10
2018-10-06T01:00:11.183Z,20.05
2018-10-06T01:02:38.485Z,19.07
2018-10-06T01:05:05.611Z,14.03
2018-10-06T01:07:32.816Z,15.25
2018-10-06T01:09:59.950Z,13.78
2018-10-06T01:12:27.332Z,12.60
2018-10-06T01:14:54.664Z,14.80
2018-10-06T01:17:21.751Z,17.85
2018-10-06T01:19:48.931Z,17.87
2018-10-06T01:22:16.119Z,16.37
2018-10-06T01:24:43.493Z,14.68
2018-10-06T01:27:10.990Z,14.87
2018-10-06T01:29:38.109Z,15.72
2018-10-06T01:32:05.199Z,17.95
2018-10-06T01:34:32.592Z,13.43
2018-10-06T01:37:00.119Z,17.00
2018-10-06T01:39:27.207Z,15.18
2018-10-06T01:41:54.433Z,13.95
2018-10-06T01:44:21.606Z,17.77
2018-10-06T01:46:51.844Z,18.20
2018-10-06T01:49:19.665Z,13.98
2018-10-06T01:51:46.754Z,14.00
2018-10-06T01:54:14.156Z,14.53
2018-10-06T01:56:41.623Z,16.62
2018-10-06T01:59:08.788Z,15.08
2018-10-06T02:01:35.927Z,18.77
2018-10-06T02:04:03.068Z,14.47
2018-10-06T02:06:30.163Z,19.07
2018-10-06T02:08:57.762Z,17.67
2018-10-06T02:11:25.146Z,16.55
2018-10-06T02:13:52.301Z,14.83
2018-10-06T02:16:19.446Z,20.40
2018-10-06T02:18:46.554Z,14.75
2018-10-06T02:21:13.680Z,17.60
2018-10-06T02:23:40.881Z,15.58
2018-10-06T02:26:08.003Z,15.63
2018-10-06T02:28:35.141Z,16.97
2018-10-06T02:31:02.354Z,20.50
2018-10-06T02:45:09.427Z,16.67
2018-10-06T02:50:35.822Z,20.20
2018-10-06T02:53:02.945Z,20.75
2018-10-06T02:55:30.089Z,14.13
2018-10-06T02:57:57.388Z,18.50
2018-10-06T03:00:24.497Z,17.17
2018-10-06T03:02:51.628Z,15.98
2018-10-06T03:05:18.763Z,20.45
2018-10-06T03:07:45.944Z,18.07
2018-10-06T03:10:13.093Z,17.12
2018-10-06T03:12:40.313Z,17.32
2018-10-06T03:15:07.429Z,14.50
2018-10-06T03:17:34.557Z,17.12
2018-10-06T03:20:01.977Z,16.67
2018-10-06T03:22:29.078Z,15.63
2018-10-06T03:24:56.180Z,18.40
2018-10-06T03:27:23.606Z,17.90
2018-10-06T03:29:50.724Z,20.25
2018-10-06T03:32:18.165Z,18.20
2018-10-06T03:34:45.179Z,20.48
2018-10-06T03:37:12.308Z,18.60
2018-10-06T03:39:39.423Z,18.32
2018-10-06T03:42:06.529Z,18.52
2018-10-06T03:44:33.629Z,21.52
2018-10-06T03:47:00.731Z,18.40
2018-10-06T03:49:28.254Z,17.87
2018-10-06T03:51:55.383Z,18.92
2018-10-06T03:54:22.630Z,16.95
2018-10-06T03:56:50.160Z,19.73
2018-10-06T03:59:17.264Z,19.67
2018-10-06T04:01:44.344Z,20.80
2018-10-06T04:04:11.507Z,22.48
2018-10-06T04:06:38.742Z,16.10
2018-10-06T04:09:07.341Z,18.45
2018-10-06T04:11:34.812Z,19.05
2018-10-06T04:14:02.021Z,17.17
2018-10-06T04:16:29.229Z,16.17
2018-10-06T04:18:56.326Z,18.45
2018-10-06T04:21:23.434Z,17.98
2018-10-06T04:23:50.928Z,16.97
2018-10-06T04:26:18.129Z,18.55
2018-10-06T04:28:45.442Z,16.55
2018-10-06T04:31:12.546Z,19.80
2018-10-06T04:33:39.736Z,21.80
2018-10-06T04:36:07.029Z,21.27
2018-10-06T04:38:34.234Z,16.70
2018-10-06T04:41:01.381Z,18.17
2018-10-06T04:43:28.527Z,16.73
2018-10-06T04:45:55.987Z,21.95
2018-10-06T04:48:23.091Z,18.98
2018-10-06T04:50:50.193Z,25.40
2018-10-06T04:53:17.390Z,47.60
2018-10-06T04:55:44.462Z,26.25
2018-10-06T04:58:11.573Z,21.85
2018-10-06T05:00:38.741Z,18.35
2018-10-06T05:03:06.123Z,20.20
2018-10-06T05:05:33.241Z,19.45
2018-10-06T05:08:00.660Z,19.20
2018-10-06T05:10:27.773Z,19.00
2018-10-06T05:12:54.924Z,22.48
2018-10-06T05:15:22.051Z,19.50
2018-10-06T05:17:49.134Z,20.90
2018-10-06T05:20:16.246Z,18.42
2018-10-06T05:22:43.340Z,18.87
2018-10-06T05:25:10.775Z,22.05
2018-10-06T05:27:37.886Z,20.80
2018-10-06T05:30:05.032Z,20.77
2018-10-06T05:32:32.382Z,34.48
2018-10-06T05:34:59.524Z,25.85
2018-10-06T05:37:26.648Z,23.30
2018-10-06T05:39:53.755Z,24.95
2018-10-06T05:42:20.956Z,19.35
2018-10-06T05:44:48.133Z,35.10
2018-10-06T05:47:15.424Z,26.85
2018-10-06T05:49:43.310Z,27.82
2018-10-06T05:52:10.739Z,26.97
2018-10-06T05:54:38.235Z,26.30
2018-10-06T05:57:05.627Z,22.20
2018-10-06T05:59:33.156Z,26.60
2018-10-06T06:02:00.649Z,29.15
2018-10-06T06:04:28.055Z,22.17
2018-10-06T06:06:55.567Z,20.88
2018-10-06T06:09:22.958Z,28.87
2018-10-06T06:11:50.109Z,25.95
2018-10-06T06:14:17.454Z,23.65
2018-10-06T06:16:44.842Z,21.33
2018-10-06T06:19:12.037Z,21.85
2018-10-06T06:21:39.500Z,26.02
2018-10-06T06:24:06.601Z,18.47
2018-10-06T06:26:33.695Z,17.37
2018-10-06T06:29:00.872Z,18.07
2018-10-06T06:31:28.077Z,17.55
2018-10-06T06:33:55.163Z,18.12
2018-10-06T06:36:22.622Z,17.37
2018-10-06T06:38:50.060Z,17.73
2018-10-06T06:41:17.263Z,25.25
2018-10-06T06:43:45.469Z,15.95
2018-10-06T06:46:12.654Z,20.02
2018-10-06T06:48:40.039Z,22.00
2018-10-06T06:51:07.328Z,19.12
2018-10-06T06:53:34.774Z,22.37
2018-10-06T06:56:02.171Z,24.00
2018-10-06T06:58:29.720Z,18.73
2018-10-06T07:00:57.184Z,20.02
2018-10-06T07:03:24.638Z,21.97
2018-10-06T07:05:52.128Z,18.45
2018-10-06T07:08:19.438Z,19.30
2018-10-06T07:10:47.020Z,18.25
2018-10-06T07:13:14.388Z,18.10
2018-10-06T07:15:41.784Z,19.45
2018-10-06T07:18:09.310Z,15.43
2018-10-06T07:20:36.469Z,17.95
2018-10-06T07:23:03.744Z,22.15
2018-10-06T07:25:31.068Z,16.85
2018-10-06T07:27:58.236Z,17.25
2018-10-06T07:30:25.770Z,16.75
2018-10-06T07:32:53.249Z,15.40
2018-10-06T07:35:20.580Z,17.52
2018-10-06T07:37:48.598Z,15.10
2018-10-06T07:40:16.047Z,15.68
2018-10-06T07:42:43.532Z,17.67
2018-10-06T07:45:10.958Z,13.10
2018-10-06T07:47:38.408Z,13.85
2018-10-06T07:50:05.930Z,15.15
2018-10-06T07:52:33.353Z,14.58
2018-10-06T07:55:00.513Z,13.43
2018-10-06T07:57:27.827Z,16.17
2018-10-06T07:59:55.263Z,13.28
2018-10-06T08:02:22.642Z,20.95
2018-10-06T08:04:50.510Z,12.23
2018-10-06T08:07:18.226Z,12.68
2018-10-06T08:09:45.494Z,14.45
2018-10-06T08:12:12.884Z,15.25
2018-10-06T08:14:40.126Z,15.85
2018-10-06T08:17:07.382Z,18.25
2018-10-06T08:19:34.903Z,17.40
2018-10-06T08:22:02.103Z,13.70
2018-10-06T08:24:29.263Z,14.10
2018-10-06T08:26:56.785Z,11.33
2018-10-06T08:29:24.340Z,17.52
2018-10-06T08:31:51.762Z,14.53
2018-10-06T08:34:18.944Z,13.10
2018-10-06T08:36:46.443Z,17.75
2018-10-06T08:39:13.759Z,15.55
2018-10-06T08:41:41.243Z,12.95
2018-10-06T08:44:08.632Z,12.98
2018-10-06T08:46:36.079Z,13.30
2018-10-06T08:49:03.370Z,17.73
2018-10-06T08:51:30.623Z,15.15
2018-10-06T08:53:58.038Z,14.87
2018-10-06T08:56:25.284Z,13.28
2018-10-06T08:58:53.096Z,14.18
2018-10-06T09:01:20.993Z,14.78
2018-10-06T09:03:48.278Z,16.30
2018-10-06T09:06:15.456Z,11.80
2018-10-06T09:08:42.652Z,13.93
2018-10-06T09:11:10.236Z,13.00
2018-10-06T09:13:38.114Z,14.50
2018-10-06T09:16:05.820Z,13.98
2018-10-06T09:18:32.963Z,13.68
2018-10-06T09:21:00.127Z,13.60
2018-10-06T09:23:27.341Z,12.78
2018-10-06T09:25:54.460Z,14.75
2018-10-06T09:28:22.039Z,17.05
2018-10-06T09:30:49.083Z,14.53
2018-10-06T09:33:16.253Z,15.60
2018-10-06T09:35:43.636Z,13.60
2018-10-06T09:38:11.047Z,16.23
2018-10-06T09:40:38.480Z,12.43
2018-10-06T09:43:05.673Z,12.50
2018-10-06T09:45:32.919Z,13.38
2018-10-06T09:48:00.415Z,9.13
2018-10-06T09:50:27.589Z,10.58
2018-10-06T09:52:54.755Z,14.87
2018-10-06T09:55:21.896Z,12.93
2018-10-06T09:57:49.048Z,12.45
2018-10-06T10:00:20.836Z,12.07
2018-10-06T10:02:53.816Z,9.93
2018-10-06T10:05:27.081Z,12.20
2018-10-06T10:07:54.386Z,14.85
2018-10-06T10:10:21.638Z,12.05
2018-10-06T10:12:48.788Z,12.50
2018-10-06T10:15:15.924Z,9.80
2018-10-06T10:17:43.188Z,10.58
2018-10-06T10:20:10.304Z,15.53
2018-10-06T10:22:37.478Z,10.53
2018-10-06T10:25:04.604Z,10.65
2018-10-06T10:27:31.749Z,15.38
2018-10-06T10:29:58.875Z,11.95
2018-10-06T10:32:26.048Z,11.68
2018-10-06T10:34:53.200Z,11.78
2018-10-06T10:37:20.554Z,11.97
2018-10-06T10:39:47.777Z,11.57
2018-10-06T10:42:15.091Z,13.35
2018-10-06T10:44:42.268Z,10.48
2018-10-06T10:47:09.590Z,11.28
2018-10-06T10:49:36.760Z,10.50
2018-10-06T10:52:04.231Z,11.00
2018-10-06T10:54:31.491Z,15.72
2018-10-06T10:56:58.943Z,11.97
2018-10-06T10:59:26.128Z,10.00
2018-10-06T11:01:53.483Z,17.30
2018-10-06T11:04:20.567Z,11.53
2018-10-06T11:06:47.732Z,10.85
2018-10-06T11:09:14.831Z,11.95
2018-10-06T11:11:41.973Z,10.75
2018-10-06T11:14:09.116Z,9.48
2018-10-06T11:16:36.661Z,11.78
2018-10-06T11:19:03.814Z,11.12
2018-10-06T11:21:30.891Z,14.25
2018-10-06T11:23:58.150Z,9.70
2018-10-06T11:26:25.307Z,10.05
2018-10-06T11:28:52.468Z,13.35
2018-10-06T11:31:19.705Z,8.83
2018-10-06T11:33:47.220Z,10.65
2018-10-06T11:36:14.360Z,9.78
2018-10-06T11:38:41.502Z,9.58
2018-10-06T11:41:08.753Z,10.75
2018-10-06T11:43:35.884Z,11.85
2018-10-06T11:46:03.014Z,10.68
2018-10-06T11:48:30.250Z,9.40
2018-10-06T11:50:57.453Z,8.55
2018-10-06T11:53:24.596Z,10.20
2018-10-06T11:55:51.748Z,7.87
2018-10-06T11:58:18.858Z,9.85
2018-10-06T12:00:46.044Z,11.33
2018-10-06T12:03:13.244Z,10.85
2018-10-06T12:05:40.562Z,11.25
2018-10-06T12:08:07.660Z,13.62
2018-10-06T12:10:34.856Z,13.60
2018-10-06T12:13:02.052Z,9.88
2018-10-06T12:15:29.171Z,9.73
2018-10-06T12:17:56.260Z,10.82
2018-10-06T12:20:23.366Z,10.72
2018-10-06T12:22:50.549Z,9.15
2018-10-06T12:25:17.817Z,13.32
2018-10-06T12:27:44.964Z,8.33
2018-10-06T12:30:12.117Z,10.95
2018-10-06T12:32:39.239Z,10.93
2018-10-06T12:35:06.486Z,10.13
2018-10-06T12:37:33.686Z,7.28
2018-10-06T12:40:00.858Z,9.80
2018-10-06T12:42:27.959Z,13.60
2018-10-06T12:44:55.088Z,9.13
2018-10-06T12:47:22.345Z,10.38
2018-10-06T12:49:49.680Z,10.23
2018-10-06T12:52:16.852Z,11.18
2018-10-06T12:54:44.243Z,13.60
2018-10-06T12:57:11.520Z,9.58
2018-10-06T12:59:38.744Z,12.58
2018-10-06T13:02:06.336Z,11.05
2018-10-06T13:04:33.508Z,7.72
2018-10-06T13:07:00.647Z,10.25
2018-10-06T13:09:27.834Z,8.93
2018-10-06T13:11:55.232Z,8.75
2018-10-06T13:14:22.328Z,7.22
2018-10-06T13:16:49.816Z,9.58
2018-10-06T13:19:17.236Z,9.90
2018-10-06T13:21:44.707Z,8.68
2018-10-06T13:24:11.835Z,11.30
2018-10-06T13:26:39.001Z,7.83
2018-10-06T13:29:06.117Z,8.80
2018-10-06T13:31:33.347Z,8.43
2018-10-06T13:34:00.480Z,6.67
2018-10-06T13:36:27.805Z,9.25
2018-10-06T13:38:55.223Z,7.03
2018-10-06T13:41:22.352Z,9.15
2018-10-06T13:43:49.756Z,8.78
2018-10-06T13:46:16.931Z,8.38
2018-10-06T13:48:44.246Z,7.53
2018-10-06T13:51:11.359Z,7.35
2018-10-06T13:53:38.837Z,9.93
2018-10-06T13:56:06.007Z,9.55
2018-10-06T13:58:33.134Z,6.65
2018-10-06T14:01:00.357Z,10.20
2018-10-06T14:03:27.503Z,7.70
2018-10-06T14:05:54.801Z,6.95
2018-10-06T14:08:21.953Z,9.83
2018-10-06T14:10:49.243Z,8.33
2018-10-06T14:13:16.353Z,7.20
2018-10-06T14:15:43.651Z,6.42
2018-10-06T14:18:10.821Z,11.15
2018-10-06T14:20:38.496Z,10.45
2018-10-06T14:23:05.660Z,7.03
2018-10-06T14:25:32.799Z,7.62
2018-10-06T14:28:00.018Z,6.72
2018-10-06T14:30:27.253Z,6.90
2018-10-06T14:32:54.358Z,5.70
2018-10-06T14:35:21.444Z,13.62
2018-10-06T14:37:48.592Z,8.63
2018-10-06T14:40:15.855Z,6.47
2018-10-06T14:42:42.990Z,10.05
2018-10-06T14:45:10.220Z,17.20
2018-10-06T14:47:37.439Z,10.13
2018-10-06T14:50:05.152Z,11.08
2018-10-06T14:52:32.356Z,10.25
2018-10-06T14:54:59.795Z,9.08
2018-10-06T14:57:27.261Z,7.50
2018-10-06T14:59:55.837Z,4.85
2018-10-06T15:02:23.435Z,5.62
2018-10-06T15:04:50.840Z,7.65
2018-10-06T15:07:18.270Z,8.35
2018-10-06T15:09:45.771Z,8.63
2018-10-06T15:12:13.293Z,10.82
2018-10-06T15:14:40.688Z,9.98
2018-10-06T15:17:08.157Z,11.30
2018-10-06T15:19:35.579Z,8.00
2018-10-06T15:22:03.022Z,8.58
2018-10-06T15:24:30.257Z,6.20
2018-10-06T15:26:57.481Z,7.47
2018-10-06T15:29:24.583Z,7.12
2018-10-06T15:31:52.023Z,7.00
2018-10-06T15:34:19.153Z,7.62
2018-10-06T15:36:46.454Z,9.45
2018-10-06T15:39:13.557Z,8.10
2018-10-06T15:41:40.712Z,8.13
2018-10-06T15:44:07.906Z,7.08
2018-10-06T15:46:35.200Z,7.40
2018-10-06T15:49:02.512Z,5.62
2018-10-06T15:51:29.793Z,11.50
2018-10-06T15:53:57.300Z,7.60
2018-10-06T15:56:24.653Z,7.35
2018-10-06T15:58:51.986Z,7.83
2018-10-06T16:01:19.144Z,4.25
2018-10-06T16:03:46.350Z,6.78
2018-10-06T16:06:13.549Z,14.87
2018-10-06T16:08:41.013Z,12.23
2018-10-06T16:11:08.570Z,12.25
2018-10-06T16:13:35.925Z,13.85
2018-10-06T16:16:03.380Z,10.28
2018-10-06T16:18:30.933Z,13.53
2018-10-06T16:20:58.459Z,10.58
2018-10-06T16:23:25.787Z,18.12
2018-10-06T16:25:53.275Z,15.95
2018-10-06T16:28:20.689Z,11.70
2018-10-06T16:30:47.952Z,16.93
2018-10-06T16:33:15.226Z,17.17
2018-10-06T16:35:42.450Z,21.55
2018-10-06T16:38:09.693Z,22.07
2018-10-06T16:40:37.145Z,15.80
2018-10-06T16:43:04.601Z,16.05
2018-10-06T16:45:33.192Z,17.02
2018-10-06T16:48:00.749Z,18.30
2018-10-06T16:50:28.171Z,19.48
2018-10-06T16:52:55.272Z,19.45
2018-10-06T16:55:22.781Z,20.27
2018-10-06T16:57:50.132Z,23.10
2018-10-06T17:00:17.814Z,19.82
2018-10-06T17:02:44.982Z,15.80
2018-10-06T17:05:12.120Z,17.77
2018-10-06T17:07:39.563Z,13.28
2018-10-06T17:10:07.206Z,16.52
2018-10-06T17:12:34.704Z,20.40
2018-10-06T17:15:01.960Z,12.15
2018-10-06T17:17:30.159Z,16.87
2018-10-06T17:19:57.760Z,19.17
2018-10-06T17:22:25.082Z,18.55
2018-10-06T17:24:52.322Z,17.23
2018-10-06T17:27:19.699Z,12.88
2018-10-06T17:29:47.096Z,15.55
2018-10-06T17:32:14.495Z,15.35
2018-10-06T17:34:42.120Z,14.75
2018-10-06T17:37:09.425Z,14.78
2018-10-06T17:39:37.371Z,19.23
2018-10-06T17:42:04.874Z,15.00
2018-10-06T17:44:32.422Z,13.18
2018-10-06T17:46:59.743Z,18.62
2018-10-06T17:49:27.142Z,12.85
2018-10-06T17:51:54.740Z,12.63
2018-10-06T17:54:22.355Z,14.65
2018-10-06T17:56:50.084Z,18.85
2018-10-06T17:59:17.490Z,15.55
2018-10-06T18:01:44.781Z,13.80
2018-10-06T18:04:12.669Z,15.25
2018-10-06T18:06:40.128Z,12.82
2018-10-06T18:09:07.873Z,12.85
2018-10-06T18:11:36.194Z,12.98
2018-10-06T18:14:03.916Z,10.82
2018-10-06T18:16:31.178Z,14.10
2018-10-06T18:18:58.715Z,15.45
2018-10-06T18:21:26.344Z,11.78
2018-10-06T18:23:53.705Z,15.23
2018-10-06T18:26:20.989Z,12.35
2018-10-06T18:28:48.516Z,11.15
2018-10-06T18:31:15.952Z,14.78
2018-10-06T18:33:43.522Z,11.53
2018-10-06T18:36:10.864Z,14.20
2018-10-06T18:38:38.256Z,12.20
2018-10-06T18:41:06.134Z,14.23
2018-10-06T18:43:33.671Z,14.30
2018-10-06T18:46:01.233Z,14.85
2018-10-06T18:48:29.011Z,11.18
2018-10-06T18:50:56.426Z,13.20
2018-10-06T18:53:23.944Z,12.50
2018-10-06T18:55:51.377Z,13.35
2018-10-06T18:58:18.775Z,12.85
2018-10-06T19:00:46.239Z,15.45
2018-10-06T19:03:13.806Z,19.20
2018-10-06T19:05:40.891Z,13.85
2018-10-06T19:08:08.254Z,12.82
2018-10-06T19:10:35.604Z,15.20
2018-10-06T19:13:02.990Z,13.18
2018-10-06T19:15:30.410Z,12.03
2018-10-06T19:17:57.506Z,15.45
2018-10-06T19:20:25.445Z,14.50
2018-10-06T19:22:52.616Z,15.30
2018-10-06T19:25:20.080Z,13.88
2018-10-06T19:27:47.423Z,12.82
2018-10-06T19:30:14.574Z,14.65
2018-10-06T19:32:41.932Z,16.45
2018-10-06T19:35:09.373Z,16.60
2018-10-06T19:37:36.825Z,14.90
2018-10-06T19:40:04.359Z,15.70
2018-10-06T19:42:31.810Z,12.65
2018-10-06T19:44:58.932Z,14.53
2018-10-06T19:47:26.253Z,16.57
2018-10-06T19:49:53.474Z,14.05
2018-10-06T19:52:20.812Z,18.05
2018-10-06T19:54:48.054Z,18.52
2018-10-06T19:57:15.265Z,17.90
2018-10-06T19:59:42.767Z,14.28
2018-10-06T20:02:10.156Z,15.58
2018-10-06T20:04:37.699Z,17.10
2018-10-06T20:07:05.784Z,17.02
2018-10-06T20:09:33.374Z,17.60
2018-10-06T20:12:00.753Z,19.25
2018-10-06T20:14:27.922Z,20.05
2018-10-06T20:16:55.435Z,19.23
2018-10-06T20:19:22.776Z,19.15
2018-10-06T20:21:50.342Z,16.60
2018-10-06T20:24:17.690Z,18.45
2018-10-06T20:26:45.118Z,17.15
2018-10-06T20:29:12.601Z,15.32
2018-10-06T20:31:40.945Z,16.52
2018-10-06T20:34:08.351Z,17.87
2018-10-06T20:36:35.853Z,24.87
2018-10-06T20:39:05.250Z,21.33
2018-10-06T20:41:32.747Z,18.55
2018-10-06T20:44:00.586Z,18.32
2018-10-06T20:46:28.081Z,18.48
2018-10-06T20:48:55.394Z,18.02
2018-10-06T20:51:23.017Z,21.87
2018-10-06T20:53:50.246Z,16.75
2018-10-06T20:56:17.541Z,19.42
2018-10-06T20:58:45.366Z,21.52
2018-10-06T21:01:12.793Z,17.65
2018-10-06T21:03:40.266Z,23.30
2018-10-06T21:06:08.064Z,20.55
2018-10-06T21:08:35.563Z,18.20
2018-10-06T21:11:03.040Z,19.90
2018-10-06T21:13:30.240Z,21.50
2018-10-06T21:15:57.630Z,19.50
2018-10-06T21:18:25.236Z,18.12
2018-10-06T21:20:52.588Z,21.68
2018-10-06T21:23:20.174Z,21.62
2018-10-06T21:25:47.721Z,18.32
2018-10-06T21:28:14.912Z,20.40
2018-10-06T21:30:42.139Z,19.82
2018-10-06T21:33:10.296Z,15.75
2018-10-06T21:35:37.518Z,18.70
2018-10-06T21:38:06.425Z,16.93
2018-10-06T21:40:33.744Z,17.57
2018-10-06T21:43:00.881Z,18.87
2018-10-06T21:45:28.343Z,17.32
2018-10-06T21:47:55.801Z,14.33
2018-10-06T21:50:23.087Z,18.90
2018-10-06T21:52:50.596Z,15.38
2018-10-06T21:55:18.544Z,16.37
2018-10-06T21:57:45.892Z,14.25
2018-10-06T22:00:13.490Z,14.00
2018-10-06T22:02:40.877Z,19.75
2018-10-06T22:05:08.290Z,15.60
2018-10-06T22:07:35.765Z,14.83
2018-10-06T22:10:03.239Z,18.17
2018-10-06T22:12:30.706Z,15.80
2018-10-06T22:14:58.105Z,17.17
2018-10-06T22:17:25.382Z,15.58
2018-10-06T22:19:52.987Z,16.50
2018-10-06T22:22:20.544Z,17.05
2018-10-06T22:24:47.725Z,16.70
2018-10-06T22:27:14.861Z,16.15
2018-10-06T22:29:42.046Z,18.35
2018-10-06T22:32:09.470Z,14.07
2018-10-06T22:34:36.886Z,16.73
2018-10-06T22:37:04.400Z,13.68
2018-10-06T22:39:31.841Z,19.50
2018-10-06T22:41:59.286Z,13.38
2018-10-06T22:44:26.547Z,12.23
2018-10-06T22:46:53.845Z,12.07
2018-10-06T22:49:21.300Z,15.88
2018-10-06T22:51:48.782Z,13.10
2018-10-06T22:54:16.124Z,11.88
2018-10-06T22:56:43.851Z,12.75
2018-10-06T22:59:11.073Z,13.45
2018-10-06T23:01:38.544Z,11.73
2018-10-06T23:04:05.661Z,14.03
2018-10-06T23:06:33.051Z,15.78
2018-10-06T23:09:00.443Z,17.95
2018-10-06T23:11:27.562Z,12.33
2018-10-06T23:13:55.096Z,12.30
2018-10-06T23:16:22.215Z,15.08
2018-10-06T23:18:49.413Z,14.93
2018-10-06T23:21:16.570Z,11.88
2018-10-06T23:23:43.848Z,11.53
2018-10-06T23:26:11.119Z,15.00
2018-10-06T23:28:39.092Z,12.15
2018-10-06T23:31:06.320Z,9.70
2018-10-06T23:33:33.510Z,13.68
2018-10-06T23:36:00.786Z,15.55
2018-10-06T23:38:27.912Z,14.15
2018-10-06T23:40:55.086Z,13.80
2018-10-06T23:43:22.466Z,16.23
2018-10-06T23:45:49.939Z,14.50
2018-10-06T23:48:17.337Z,12.98
2018-10-06T23:50:44.841Z,17.27
2018-10-06T23:53:12.232Z,13.55
2018-10-06T23:55:40.029Z,10.08
2018-10-06T23:58:07.575Z,13.15
